Terminal Aerodrome Forecast
Issued by NWS

Home | Current Version | Previous Version | Text Only | Print | Product List | Glossary Off
Versions: 1 2 3 4 5 6 7 8 9 10 11 12 13 14 15 16 17

641
FTUS43 KGRB 232329
TAFCWA
TAF
KCWA 232329Z 2400/2424 12011KT P6SM BKN150
     FM241800 15016G24KT P6SM BKN150
      AMD LTD TO CLD VIS AND WIND 2403/2411=

USA.gov is the U.S. government's official web portal to all federal, state and local government web resources and services.